SWA2332 PHOG-PHKO
Flight info
| Callsign | SWA2332 |
|---|---|
| Flight time | 0h 28m |
| Altitude | 15000 |
| Route | ONOHI2 ONOHI VECKI9 |
| Aircraft | B38M/M-SDE1FGHILORVWXY/HB1 |
Departure
| Time | 2026-04-26 16:31 |
|---|---|
| Airport | Kahului International Airport (PHOG) |
Arrival
| Time | 2026-04-26 17:00 |
|---|---|
| Airport | Ellison Onizuka Kona International Airport at Keāhole (PHKO) |
| Time | Latitude | Longitude | Altitude | Speed | Heading |
|---|---|---|---|---|---|
| 2026-04-26 16:15 | 20.89155 | -156.43784 | 64 ft | 0 kts | 308° |
| 2026-04-26 16:26 | 20.89152 | -156.43779 | 64 ft | 1 kts | 308° |
| 2026-04-26 16:26 | 20.89142 | -156.43767 | 65 ft | 3 kts | 308° |
| 2026-04-26 16:27 | 20.89126 | -156.43744 | 65 ft | 1 kts | 308° |
| 2026-04-26 16:29 | 20.89127 | -156.43749 | 65 ft | 1 kts | 273° |
| 2026-04-26 16:29 | 20.89101 | -156.43756 | 66 ft | 8 kts | 180° |
| 2026-04-26 16:30 | 20.89038 | -156.43747 | 67 ft | 7 kts | 153° |
| 2026-04-26 16:30 | 20.89018 | -156.43727 | 68 ft | 1 kts | 135° |
| 2026-04-26 16:30 | 20.88999 | -156.43707 | 69 ft | 9 kts | 136° |
| 2026-04-26 16:30 | 20.88966 | -156.43604 | 72 ft | 20 kts | 51° |
| 2026-04-26 16:31 | 20.89064 | -156.43523 | 73 ft | 18 kts | 34° |
| 2026-04-26 16:31 | 20.89419 | -156.43260 | 61 ft | 106 kts | 36° |
| 2026-04-26 16:31 | 20.90241 | -156.42653 | 153 ft | 168 kts | 34° |
| 2026-04-26 16:31 | 20.91266 | -156.41905 | 694 ft | 189 kts | 34° |
| 2026-04-26 16:32 | 20.92426 | -156.41147 | 1352 ft | 210 kts | 33° |
| 2026-04-26 16:32 | 20.93709 | -156.40303 | 2239 ft | 222 kts | 35° |
| 2026-04-26 16:32 | 20.94894 | -156.39215 | 3002 ft | 233 kts | 51° |
| 2026-04-26 16:32 | 20.95874 | -156.37744 | 3696 ft | 250 kts | 60° |
| 2026-04-26 16:33 | 20.96648 | -156.36085 | 4573 ft | 258 kts | 71° |
| 2026-04-26 16:33 | 20.97073 | -156.34213 | 5493 ft | 264 kts | 86° |
| 2026-04-26 16:33 | 20.96819 | -156.32291 | 6445 ft | 266 kts | 109° |
| 2026-04-26 16:33 | 20.96159 | -156.30437 | 7310 ft | 273 kts | 110° |
| 2026-04-26 16:34 | 20.95513 | -156.28526 | 8188 ft | 278 kts | 109° |
| 2026-04-26 16:34 | 20.94870 | -156.26576 | 9041 ft | 283 kts | 108° |
| 2026-04-26 16:34 | 20.94218 | -156.24596 | 9844 ft | 289 kts | 108° |
| 2026-04-26 16:34 | 20.93760 | -156.23202 | 10417 ft | 291 kts | 108° |
| 2026-04-26 16:35 | 20.93061 | -156.21089 | 10709 ft | 315 kts | 108° |
| 2026-04-26 16:35 | 20.92312 | -156.18831 | 11063 ft | 334 kts | 108° |
| 2026-04-26 16:35 | 20.91505 | -156.16386 | 11374 ft | 353 kts | 108° |
| 2026-04-26 16:35 | 20.90678 | -156.13895 | 11933 ft | 362 kts | 108° |
| 2026-04-26 16:36 | 20.89839 | -156.11366 | 12513 ft | 368 kts | 108° |
| 2026-04-26 16:36 | 20.88980 | -156.08769 | 13117 ft | 373 kts | 108° |
| 2026-04-26 16:36 | 20.88104 | -156.06140 | 13721 ft | 377 kts | 108° |
| 2026-04-26 16:36 | 20.87232 | -156.03513 | 14318 ft | 380 kts | 108° |
| 2026-04-26 16:37 | 20.86330 | -156.00815 | 14803 ft | 386 kts | 110° |
| 2026-04-26 16:37 | 20.85026 | -155.98328 | 14962 ft | 391 kts | 129° |
| 2026-04-26 16:37 | 20.82909 | -155.96524 | 14989 ft | 391 kts | 153° |
| 2026-04-26 16:37 | 20.80245 | -155.95779 | 14992 ft | 395 kts | 177° |
| 2026-04-26 16:38 | 20.77569 | -155.96227 | 14991 ft | 396 kts | 201° |
| 2026-04-26 16:38 | 20.75121 | -155.97621 | 15005 ft | 395 kts | 211° |
| 2026-04-26 16:38 | 20.72685 | -155.99008 | 14987 ft | 395 kts | 204° |
| 2026-04-26 16:38 | 20.70097 | -156.00005 | 14984 ft | 395 kts | 195° |
| 2026-04-26 16:39 | 20.67441 | -156.00697 | 14990 ft | 395 kts | 191° |
| 2026-04-26 16:39 | 20.64711 | -156.01146 | 14993 ft | 394 kts | 186° |
| 2026-04-26 16:39 | 20.61993 | -156.01417 | 14989 ft | 394 kts | 184° |
| 2026-04-26 16:39 | 20.59233 | -156.01619 | 14987 ft | 396 kts | 183° |
| 2026-04-26 16:40 | 20.56471 | -156.01778 | 14985 ft | 395 kts | 182° |
| 2026-04-26 16:40 | 20.53705 | -156.01907 | 14980 ft | 394 kts | 181° |
| 2026-04-26 16:40 | 20.50979 | -156.02022 | 14980 ft | 395 kts | 181° |
| 2026-04-26 16:40 | 20.48210 | -156.02122 | 14976 ft | 395 kts | 181° |
| 2026-04-26 16:41 | 20.45446 | -156.02217 | 14972 ft | 395 kts | 181° |
| 2026-04-26 16:41 | 20.42677 | -156.02307 | 14972 ft | 394 kts | 181° |
| 2026-04-26 16:41 | 20.39961 | -156.02396 | 14975 ft | 394 kts | 181° |
| 2026-04-26 16:41 | 20.37196 | -156.02483 | 14505 ft | 399 kts | 181° |
| 2026-04-26 16:42 | 20.34405 | -156.02568 | 13387 ft | 393 kts | 181° |
| 2026-04-26 16:42 | 20.31732 | -156.02649 | 12866 ft | 385 kts | 181° |
| 2026-04-26 16:42 | 20.29084 | -156.02734 | 12152 ft | 382 kts | 181° |
| 2026-04-26 16:42 | 20.26393 | -156.02821 | 11498 ft | 386 kts | 181° |
| 2026-04-26 16:43 | 20.23710 | -156.02905 | 10890 ft | 382 kts | 181° |
| 2026-04-26 16:43 | 20.21110 | -156.02983 | 10530 ft | 368 kts | 181° |
| 2026-04-26 16:43 | 20.18583 | -156.03059 | 10365 ft | 349 kts | 181° |
| 2026-04-26 16:43 | 20.16222 | -156.03134 | 10218 ft | 333 kts | 181° |
| 2026-04-26 16:44 | 20.13972 | -156.03206 | 10069 ft | 308 kts | 181° |
| 2026-04-26 16:44 | 20.11867 | -156.03268 | 9935 ft | 304 kts | 181° |
| 2026-04-26 16:44 | 20.09768 | -156.03331 | 9777 ft | 294 kts | 181° |
| 2026-04-26 16:44 | 20.07754 | -156.03323 | 9487 ft | 280 kts | 177° |
| 2026-04-26 16:45 | 20.05835 | -156.03256 | 9150 ft | 279 kts | 177° |
| 2026-04-26 16:45 | 20.03880 | -156.03194 | 8812 ft | 278 kts | 178° |
| 2026-04-26 16:45 | 20.01962 | -156.03142 | 8488 ft | 273 kts | 178° |
| 2026-04-26 16:45 | 20.00029 | -156.03088 | 8156 ft | 277 kts | 178° |
| 2026-04-26 16:46 | 19.98140 | -156.03033 | 7833 ft | 266 kts | 178° |
| 2026-04-26 16:46 | 19.96242 | -156.02977 | 7512 ft | 274 kts | 178° |
| 2026-04-26 16:46 | 19.94366 | -156.02925 | 7184 ft | 264 kts | 178° |
| 2026-04-26 16:46 | 19.92512 | -156.02908 | 6987 ft | 261 kts | 185° |
| 2026-04-26 16:47 | 19.90913 | -156.03542 | 7040 ft | 240 kts | 221° |
| 2026-04-26 16:47 | 19.89965 | -156.04993 | 6614 ft | 252 kts | 251° |
| 2026-04-26 16:47 | 19.89526 | -156.06825 | 5892 ft | 260 kts | 257° |
| 2026-04-26 16:47 | 19.89120 | -156.08704 | 5169 ft | 267 kts | 257° |
| 2026-04-26 16:48 | 19.88685 | -156.10649 | 4432 ft | 272 kts | 256° |
| 2026-04-26 16:48 | 19.88245 | -156.12584 | 3712 ft | 276 kts | 256° |
| 2026-04-26 16:48 | 19.87839 | -156.14583 | 2979 ft | 278 kts | 262° |
| 2026-04-26 16:48 | 19.87592 | -156.16614 | 2249 ft | 279 kts | 267° |
| 2026-04-26 16:49 | 19.87946 | -156.18590 | 1693 ft | 269 kts | 302° |
| 2026-04-26 16:49 | 19.89218 | -156.19840 | 1643 ft | 238 kts | 340° |
| 2026-04-26 16:49 | 19.90750 | -156.19945 | 1645 ft | 209 kts | 23° |
| 2026-04-26 16:49 | 19.91809 | -156.18985 | 1661 ft | 203 kts | 65° |
| 2026-04-26 16:50 | 19.92235 | -156.17566 | 1672 ft | 203 kts | 76° |
| 2026-04-26 16:50 | 19.92565 | -156.16103 | 1654 ft | 203 kts | 76° |
| 2026-04-26 16:50 | 19.92899 | -156.14629 | 1650 ft | 204 kts | 76° |
| 2026-04-26 16:50 | 19.93233 | -156.13162 | 1649 ft | 204 kts | 76° |
| 2026-04-26 16:51 | 19.93567 | -156.11697 | 1652 ft | 203 kts | 76° |
| 2026-04-26 16:51 | 19.93901 | -156.10239 | 1655 ft | 203 kts | 76° |
| 2026-04-26 16:51 | 19.94234 | -156.08787 | 1655 ft | 202 kts | 76° |
| 2026-04-26 16:51 | 19.94566 | -156.07341 | 1655 ft | 202 kts | 76° |
| 2026-04-26 16:52 | 19.94904 | -156.05870 | 1655 ft | 203 kts | 76° |
| 2026-04-26 16:52 | 19.95130 | -156.04887 | 1655 ft | 204 kts | 76° |
| 2026-04-26 16:52 | 19.95579 | -156.02940 | 1653 ft | 203 kts | 76° |
| 2026-04-26 16:52 | 19.95915 | -156.01480 | 1653 ft | 204 kts | 76° |
| 2026-04-26 16:53 | 19.96251 | -156.00017 | 1652 ft | 205 kts | 76° |
| 2026-04-26 16:53 | 19.96587 | -155.98544 | 1655 ft | 205 kts | 76° |
| 2026-04-26 16:53 | 19.96927 | -155.97054 | 1658 ft | 207 kts | 76° |
| 2026-04-26 16:53 | 19.97244 | -155.95575 | 1659 ft | 204 kts | 83° |
| 2026-04-26 16:54 | 19.96964 | -155.94122 | 1671 ft | 207 kts | 125° |
| 2026-04-26 16:54 | 19.95778 | -155.93265 | 1672 ft | 211 kts | 169° |
| 2026-04-26 16:54 | 19.94365 | -155.93521 | 1667 ft | 212 kts | 213° |
| 2026-04-26 16:54 | 19.93413 | -155.94722 | 1684 ft | 214 kts | 242° |
| 2026-04-26 16:55 | 19.92748 | -155.96127 | 1667 ft | 211 kts | 243° |
| 2026-04-26 16:55 | 19.92080 | -155.97449 | 1667 ft | 192 kts | 236° |
| 2026-04-26 16:55 | 19.91410 | -155.98585 | 1649 ft | 175 kts | 238° |
| 2026-04-26 16:55 | 19.90778 | -155.99696 | 1654 ft | 173 kts | 238° |
| 2026-04-26 16:56 | 19.89416 | -156.01798 | 1663 ft | 173 kts | 230° |
| 2026-04-26 16:56 | 19.88611 | -156.02762 | 1662 ft | 173 kts | 221° |
| 2026-04-26 16:56 | 19.87638 | -156.03467 | 1659 ft | 171 kts | 204° |
| 2026-04-26 16:57 | 19.86499 | -156.03865 | 1666 ft | 170 kts | 188° |
| 2026-04-26 16:57 | 19.85321 | -156.03981 | 1665 ft | 169 kts | 182° |
| 2026-04-26 16:57 | 19.82957 | -156.04143 | 1496 ft | 167 kts | 182° |
| 2026-04-26 16:58 | 19.81796 | -156.04227 | 1304 ft | 166 kts | 182° |
| 2026-04-26 16:58 | 19.81021 | -156.04285 | 1177 ft | 167 kts | 182° |
| 2026-04-26 16:58 | 19.78346 | -156.04477 | 723 ft | 157 kts | 182° |
| 2026-04-26 16:59 | 19.77254 | -156.04450 | 515 ft | 157 kts | 173° |
| 2026-04-26 16:59 | 19.75074 | -156.04460 | 79 ft | 151 kts | 184° |
| 2026-04-26 17:00 | 19.73676 | -156.04575 | 57 ft | 34 kts | 186° |
| 2026-04-26 17:00 | 19.73455 | -156.04558 | 57 ft | 23 kts | 133° |
| 2026-04-26 17:00 | 19.73415 | -156.04422 | 62 ft | 10 kts | 97° |
| 2026-04-26 17:01 | 19.73410 | -156.04378 | 63 ft | 5 kts | 97° |
| 2026-04-26 17:01 | 19.73402 | -156.04315 | 66 ft | 10 kts | 98° |
| 2026-04-26 17:01 | 19.73391 | -156.04222 | 71 ft | 9 kts | 94° |
| 2026-04-26 17:01 | 19.73388 | -156.04179 | 73 ft | 2 kts | 94° |